createdAt,value
2019-03-03T00:00:15.784Z,19.80
2019-03-03T00:01:15.764Z,19.20
2019-03-03T00:02:15.740Z,19.30
2019-03-03T00:03:15.718Z,20.30
2019-03-03T00:04:15.700Z,20.60
2019-03-03T00:05:15.674Z,20.00
2019-03-03T00:06:15.652Z,22.60
2019-03-03T00:07:15.632Z,20.50
2019-03-03T00:08:15.606Z,19.80
2019-03-03T00:09:15.590Z,20.20
2019-03-03T00:10:15.567Z,22.90
2019-03-03T00:11:15.547Z,23.90
2019-03-03T00:12:15.518Z,24.20
2019-03-03T00:13:15.497Z,25.60
2019-03-03T00:14:15.472Z,24.60
2019-03-03T00:15:15.449Z,25.40
2019-03-03T00:16:15.430Z,26.10
2019-03-03T00:17:15.405Z,23.20
2019-03-03T00:18:15.386Z,26.60
2019-03-03T00:19:15.359Z,27.90
2019-03-03T00:20:15.333Z,24.80
2019-03-03T00:21:15.312Z,22.60
2019-03-03T00:22:15.292Z,22.50
2019-03-03T00:23:15.318Z,23.10
2019-03-03T00:24:15.247Z,23.70
2019-03-03T00:25:15.222Z,25.10
2019-03-03T00:26:15.200Z,24.50
2019-03-03T00:27:15.179Z,26.90
2019-03-03T00:28:15.154Z,22.40
2019-03-03T00:29:15.133Z,21.00
2019-03-03T00:30:15.126Z,21.40
2019-03-03T00:31:15.094Z,20.80
2019-03-03T00:32:15.070Z,23.70
2019-03-03T00:33:15.047Z,24.80
2019-03-03T00:34:15.024Z,26.20
2019-03-03T00:35:15.002Z,24.90
2019-03-03T00:36:14.975Z,22.70
2019-03-03T00:37:14.957Z,24.00
2019-03-03T00:38:14.932Z,22.70
2019-03-03T00:39:14.913Z,21.50
2019-03-03T00:40:14.889Z,24.50
2019-03-03T00:41:14.866Z,27.30
2019-03-03T00:42:14.857Z,24.10
2019-03-03T00:43:14.825Z,24.10
2019-03-03T00:44:14.802Z,21.60
2019-03-03T00:45:14.777Z,23.30
2019-03-03T00:46:14.755Z,22.60
2019-03-03T00:47:14.735Z,21.20
2019-03-03T00:48:14.713Z,22.60
2019-03-03T00:49:14.688Z,26.50
2019-03-03T00:50:14.668Z,25.70
2019-03-03T00:51:14.646Z,23.00
2019-03-03T00:52:14.617Z,22.10
2019-03-03T00:53:14.601Z,21.50
2019-03-03T00:54:14.582Z,22.90
2019-03-03T00:55:14.554Z,20.60
2019-03-03T00:56:14.535Z,18.50
2019-03-03T00:57:14.510Z,21.60
2019-03-03T00:58:14.485Z,23.80
2019-03-03T00:59:14.461Z,23.40
2019-03-03T01:00:14.440Z,22.40
2019-03-03T01:01:14.417Z,23.30
2019-03-03T01:02:14.399Z,23.20
2019-03-03T01:03:14.377Z,22.80
2019-03-03T01:04:14.355Z,26.10
2019-03-03T01:05:14.329Z,27.00
2019-03-03T01:06:14.309Z,23.70
2019-03-03T01:07:14.285Z,25.10
2019-03-03T01:08:14.269Z,23.60
2019-03-03T01:09:14.243Z,21.30
2019-03-03T01:10:14.229Z,20.50
2019-03-03T01:11:14.201Z,19.50
2019-03-03T01:12:14.174Z,19.90
2019-03-03T01:13:14.159Z,20.90
2019-03-03T01:14:14.129Z,21.90
2019-03-03T01:15:14.111Z,22.90
2019-03-03T01:16:14.139Z,21.20
2019-03-03T01:17:14.061Z,20.40
2019-03-03T01:18:14.044Z,20.20
2019-03-03T01:19:14.024Z,20.30
2019-03-03T01:20:13.999Z,21.00
2019-03-03T01:21:13.975Z,21.60
2019-03-03T01:22:13.957Z,19.60
2019-03-03T01:23:13.935Z,20.90
2019-03-03T01:24:13.910Z,20.50
2019-03-03T01:25:13.886Z,19.90
2019-03-03T01:26:13.862Z,19.60
2019-03-03T01:27:13.847Z,20.50
2019-03-03T01:28:13.820Z,20.60
2019-03-03T01:29:13.803Z,20.40
2019-03-03T01:30:13.776Z,20.80
2019-03-03T01:31:13.751Z,21.10
2019-03-03T01:32:13.732Z,20.80
2019-03-03T01:33:13.715Z,21.40
2019-03-03T01:34:13.688Z,19.60
2019-03-03T01:35:13.667Z,22.20
2019-03-03T01:36:13.644Z,22.40
2019-03-03T01:37:13.619Z,24.10
2019-03-03T01:38:13.597Z,24.80
2019-03-03T01:39:13.575Z,24.20
2019-03-03T01:40:13.554Z,24.30
2019-03-03T01:41:13.528Z,25.40
2019-03-03T01:42:13.511Z,26.10
2019-03-03T01:43:13.491Z,25.80
2019-03-03T01:44:13.465Z,26.20
2019-03-03T01:45:13.437Z,27.70
2019-03-03T01:46:13.418Z,27.60
2019-03-03T01:47:13.399Z,28.90
2019-03-03T01:48:13.380Z,27.50
2019-03-03T01:49:13.356Z,30.50
2019-03-03T01:50:13.330Z,29.50
2019-03-03T01:51:13.318Z,30.50
2019-03-03T01:52:13.286Z,30.00
2019-03-03T01:53:13.267Z,31.00
2019-03-03T01:54:13.242Z,31.20
2019-03-03T01:55:13.218Z,31.40
2019-03-03T01:56:13.198Z,31.70
2019-03-03T01:57:13.173Z,31.50
2019-03-03T01:58:13.160Z,32.30
2019-03-03T01:59:13.130Z,33.50
2019-03-03T02:00:13.112Z,31.20
2019-03-03T02:01:13.086Z,31.70
2019-03-03T02:02:13.069Z,30.90
2019-03-03T02:03:13.042Z,31.20
2019-03-03T02:04:13.024Z,31.30
2019-03-03T02:05:13.002Z,29.90
2019-03-03T02:06:12.976Z,32.20
2019-03-03T02:07:12.956Z,31.20
2019-03-03T02:08:12.940Z,32.70
2019-03-03T02:09:12.910Z,32.00
2019-03-03T02:10:12.897Z,34.50
2019-03-03T02:11:12.864Z,33.80
2019-03-03T02:12:12.849Z,34.80
2019-03-03T02:13:12.819Z,34.20
2019-03-03T02:14:12.800Z,33.50
2019-03-03T02:15:12.779Z,34.20
2019-03-03T02:16:12.756Z,34.80
2019-03-03T02:17:12.736Z,35.00
2019-03-03T02:18:12.715Z,34.00
2019-03-03T02:19:12.688Z,35.50
2019-03-03T02:20:12.664Z,36.70
2019-03-03T02:21:12.644Z,33.70
2019-03-03T02:22:12.622Z,34.70
2019-03-03T02:23:12.606Z,33.20
2019-03-03T02:24:12.575Z,34.30
2019-03-03T02:25:12.552Z,33.20
2019-03-03T02:26:12.540Z,33.60
2019-03-03T02:27:12.518Z,33.50
2019-03-03T02:28:12.491Z,32.80
2019-03-03T02:29:12.467Z,34.70
2019-03-03T02:30:12.443Z,32.90
2019-03-03T02:31:12.426Z,33.20
2019-03-03T02:32:12.405Z,32.20
2019-03-03T02:33:12.378Z,32.70
2019-03-03T02:34:12.360Z,35.00
2019-03-03T02:35:12.336Z,31.30
2019-03-03T02:36:12.318Z,33.20
2019-03-03T02:37:12.290Z,32.50
2019-03-03T02:38:12.269Z,33.50
2019-03-03T02:39:12.249Z,32.80
2019-03-03T02:40:12.220Z,32.90
2019-03-03T02:41:12.208Z,32.80
2019-03-03T02:42:12.178Z,30.30
2019-03-03T02:43:12.159Z,32.70
2019-03-03T02:44:12.137Z,31.80
2019-03-03T02:45:12.116Z,31.60
2019-03-03T02:46:12.094Z,31.90
2019-03-03T02:47:12.073Z,32.10
2019-03-03T02:48:12.047Z,30.90
2019-03-03T02:49:12.023Z,29.40
2019-03-03T02:50:12.006Z,31.30
2019-03-03T02:51:11.980Z,31.90
2019-03-03T02:52:11.962Z,32.30
2019-03-03T02:53:11.940Z,30.50
2019-03-03T02:54:11.916Z,30.20
2019-03-03T02:55:11.896Z,29.90
2019-03-03T02:56:11.867Z,31.10
2019-03-03T02:57:11.849Z,31.80
2019-03-03T02:58:11.829Z,33.50
2019-03-03T02:59:11.803Z,37.00
2019-03-03T03:00:11.796Z,38.40
2019-03-03T03:01:11.762Z,39.80
2019-03-03T03:02:11.736Z,39.90
2019-03-03T03:03:11.717Z,40.40
2019-03-03T03:04:11.695Z,44.00
2019-03-03T03:05:11.670Z,46.00
2019-03-03T03:06:11.648Z,44.70
2019-03-03T03:07:11.629Z,45.50
2019-03-03T03:08:11.602Z,45.90
2019-03-03T03:09:11.585Z,45.50
2019-03-03T03:10:11.561Z,45.70
2019-03-03T03:11:11.540Z,48.10
2019-03-03T03:12:11.521Z,50.00
2019-03-03T03:13:11.498Z,46.90
2019-03-03T03:14:11.471Z,49.90
2019-03-03T03:15:11.454Z,47.40
2019-03-03T03:16:11.430Z,49.50
2019-03-03T03:17:11.405Z,49.90
2019-03-03T03:18:11.380Z,50.30
2019-03-03T03:19:11.368Z,50.70
2019-03-03T03:20:11.336Z,48.40
2019-03-03T03:21:11.320Z,51.20
2019-03-03T03:22:11.296Z,50.40
2019-03-03T03:23:11.276Z,49.00
2019-03-03T03:24:11.341Z,50.50
2019-03-03T03:25:11.231Z,49.50
2019-03-03T03:26:11.209Z,51.00
2019-03-03T03:27:11.183Z,50.70
2019-03-03T03:28:11.161Z,50.80
2019-03-03T03:29:11.139Z,51.10
2019-03-03T03:30:11.120Z,51.70
2019-03-03T03:31:11.121Z,48.80
2019-03-03T03:32:11.079Z,51.90
2019-03-03T03:33:11.066Z,50.40
2019-03-03T03:34:11.066Z,51.40
2019-03-03T03:35:11.005Z,51.10
2019-03-03T03:36:10.981Z,52.50
2019-03-03T03:37:10.968Z,52.40
2019-03-03T03:38:10.936Z,52.70
2019-03-03T03:39:10.935Z,51.80
2019-03-03T03:40:10.896Z,52.50
2019-03-03T03:41:10.878Z,54.60
2019-03-03T03:42:10.851Z,50.70
2019-03-03T03:43:10.826Z,50.60
2019-03-03T03:44:10.805Z,51.30
2019-03-03T03:45:10.785Z,52.70
2019-03-03T03:46:10.766Z,53.40
2019-03-03T03:47:10.740Z,53.20
2019-03-03T03:48:10.733Z,52.10
2019-03-03T03:49:10.698Z,53.30
2019-03-03T03:50:10.673Z,51.30
2019-03-03T03:51:10.650Z,51.50
2019-03-03T03:52:10.629Z,53.90
2019-03-03T03:53:10.608Z,50.00
2019-03-03T03:54:10.585Z,49.40
2019-03-03T03:55:10.561Z,49.30
2019-03-03T03:56:10.540Z,51.00
2019-03-03T03:57:10.516Z,52.10
2019-03-03T03:58:10.491Z,49.30
2019-03-03T03:59:10.474Z,48.60
2019-03-03T04:00:10.450Z,50.00
2019-03-03T04:01:10.430Z,49.80
2019-03-03T04:02:10.407Z,49.40
2019-03-03T04:03:10.386Z,48.00
2019-03-03T04:04:10.363Z,50.40
2019-03-03T04:05:10.340Z,47.80
2019-03-03T04:06:10.363Z,46.30
2019-03-03T04:07:10.297Z,46.10
2019-03-03T04:08:10.276Z,47.60
2019-03-03T04:09:10.252Z,46.20
2019-03-03T04:10:10.231Z,46.80
2019-03-03T04:11:10.205Z,47.80
2019-03-03T04:12:10.183Z,48.80
2019-03-03T04:13:10.162Z,47.20
2019-03-03T04:14:10.137Z,47.00
2019-03-03T04:15:10.127Z,46.80
2019-03-03T04:16:10.102Z,47.20
2019-03-03T04:17:10.070Z,47.80
2019-03-03T04:18:10.049Z,46.10
2019-03-03T04:19:10.030Z,48.10
2019-03-03T04:20:10.008Z,47.40
2019-03-03T04:21:09.987Z,46.20
2019-03-03T04:22:09.966Z,46.50
2019-03-03T04:23:09.944Z,47.40
2019-03-03T04:24:09.920Z,49.60
2019-03-03T04:25:09.899Z,48.00
2019-03-03T04:26:09.875Z,47.80
2019-03-03T04:27:09.848Z,49.50
2019-03-03T04:28:09.831Z,48.30
2019-03-03T04:29:09.809Z,48.90
2019-03-03T04:30:09.794Z,51.00
2019-03-03T04:31:09.766Z,51.10
2019-03-03T04:32:09.744Z,49.00
2019-03-03T04:33:09.718Z,48.30
2019-03-03T04:34:09.703Z,46.90
2019-03-03T04:35:09.675Z,45.60
2019-03-03T04:36:09.650Z,44.40
2019-03-03T04:37:09.639Z,44.70
2019-03-03T04:38:09.610Z,44.50
2019-03-03T04:39:09.588Z,43.50
2019-03-03T04:40:09.568Z,42.90
2019-03-03T04:41:09.544Z,43.60
2019-03-03T04:42:09.516Z,43.80
2019-03-03T04:43:09.496Z,44.50
2019-03-03T04:44:09.480Z,43.00
2019-03-03T04:45:09.456Z,42.50
2019-03-03T04:46:09.430Z,41.50
2019-03-03T04:47:09.409Z,42.30
2019-03-03T04:48:09.386Z,42.50
2019-03-03T04:49:09.362Z,41.60
2019-03-03T04:50:09.344Z,42.80
2019-03-03T04:51:09.323Z,41.40
2019-03-03T04:52:09.300Z,40.80
2019-03-03T04:53:09.275Z,42.20
2019-03-03T04:54:09.257Z,41.80
2019-03-03T04:55:09.232Z,39.30
2019-03-03T04:56:09.212Z,40.10
2019-03-03T04:57:09.188Z,39.90
2019-03-03T04:58:09.166Z,40.20
2019-03-03T04:59:09.149Z,38.10
2019-03-03T05:00:09.123Z,38.80
2019-03-03T05:01:09.102Z,39.50
2019-03-03T05:02:09.081Z,38.20
2019-03-03T05:03:09.058Z,38.40
2019-03-03T05:04:09.038Z,37.30
2019-03-03T05:05:09.015Z,36.80
2019-03-03T05:06:08.991Z,36.10
2019-03-03T05:07:08.968Z,35.90
2019-03-03T05:08:08.946Z,34.50
2019-03-03T05:09:08.925Z,35.00
2019-03-03T05:10:08.906Z,35.00
2019-03-03T05:11:08.884Z,35.50
2019-03-03T05:12:08.859Z,36.20
2019-03-03T05:13:08.835Z,34.50
2019-03-03T05:14:08.814Z,34.30
2019-03-03T05:15:08.791Z,33.30
2019-03-03T05:16:08.773Z,32.90
2019-03-03T05:17:08.849Z,32.70
2019-03-03T05:18:08.735Z,32.80
2019-03-03T05:19:08.713Z,31.50
2019-03-03T05:20:08.688Z,31.90
2019-03-03T05:21:08.664Z,30.80
2019-03-03T05:22:08.643Z,31.10
2019-03-03T05:23:08.720Z,30.80
2019-03-03T05:24:08.595Z,31.00
2019-03-03T05:25:08.577Z,30.80
2019-03-03T05:26:08.549Z,29.70
2019-03-03T05:27:08.532Z,30.50
2019-03-03T05:28:08.507Z,30.20
2019-03-03T05:29:08.487Z,30.20
2019-03-03T05:30:08.463Z,29.50
2019-03-03T05:31:08.444Z,28.00
2019-03-03T05:32:08.429Z,27.60
2019-03-03T05:33:08.401Z,26.90
2019-03-03T05:34:08.380Z,28.10
2019-03-03T05:35:08.360Z,26.20
2019-03-03T05:36:08.337Z,26.90
2019-03-03T05:37:08.316Z,26.90
2019-03-03T05:38:08.288Z,26.60
2019-03-03T05:39:08.271Z,26.60
2019-03-03T05:40:08.249Z,26.20
2019-03-03T05:41:08.223Z,25.90
2019-03-03T05:42:08.215Z,26.50
2019-03-03T05:43:08.185Z,26.00
2019-03-03T05:44:08.159Z,26.20
2019-03-03T05:45:08.146Z,25.90
2019-03-03T05:46:08.117Z,25.60
2019-03-03T05:47:08.095Z,24.30
2019-03-03T05:48:08.079Z,24.70
2019-03-03T05:49:08.053Z,25.00
2019-03-03T05:50:08.027Z,25.30
2019-03-03T05:51:08.011Z,24.10
2019-03-03T05:52:07.987Z,23.50
2019-03-03T05:53:07.963Z,23.20
2019-03-03T05:54:07.942Z,23.70
2019-03-03T05:55:07.923Z,22.70
2019-03-03T05:56:07.901Z,22.10
2019-03-03T05:57:07.880Z,22.10
2019-03-03T05:58:07.856Z,21.70
2019-03-03T05:59:07.831Z,21.80
2019-03-03T06:00:07.815Z,22.70
2019-03-03T06:01:07.797Z,22.80
2019-03-03T06:02:07.771Z,23.00
2019-03-03T06:03:07.739Z,22.50
2019-03-03T06:04:07.724Z,21.60
2019-03-03T06:05:07.701Z,21.80
2019-03-03T06:06:07.682Z,23.40
2019-03-03T06:07:07.657Z,22.20
2019-03-03T06:08:07.638Z,21.60
2019-03-03T06:09:07.619Z,20.30
2019-03-03T06:10:07.596Z,20.70
2019-03-03T06:11:07.572Z,20.10
2019-03-03T06:12:07.553Z,20.20
2019-03-03T06:13:07.533Z,19.80
2019-03-03T06:14:07.514Z,19.30
2019-03-03T06:15:07.491Z,19.60
2019-03-03T06:16:07.467Z,19.10
2019-03-03T06:17:07.447Z,20.60
2019-03-03T06:18:07.423Z,19.20
2019-03-03T06:19:07.400Z,19.50
2019-03-03T06:20:07.381Z,18.80
2019-03-03T06:21:07.355Z,18.50
2019-03-03T06:22:07.342Z,18.50
2019-03-03T06:23:07.315Z,19.60
2019-03-03T06:24:07.293Z,18.80
2019-03-03T06:25:07.271Z,18.70
2019-03-03T06:26:07.254Z,18.60
2019-03-03T06:27:07.231Z,17.20
2019-03-03T06:28:07.206Z,18.50
2019-03-03T06:29:07.188Z,17.20
2019-03-03T06:30:07.166Z,16.70
2019-03-03T06:31:07.145Z,17.20
2019-03-03T06:32:07.126Z,17.00
2019-03-03T06:33:07.101Z,17.20
2019-03-03T06:34:07.080Z,16.20
2019-03-03T06:35:07.056Z,15.90
2019-03-03T06:36:07.037Z,16.00
2019-03-03T06:37:07.015Z,14.70
2019-03-03T06:38:06.996Z,15.20
2019-03-03T06:39:06.970Z,15.60
2019-03-03T06:40:06.951Z,14.60
2019-03-03T06:41:06.934Z,14.20
2019-03-03T06:42:06.908Z,13.30
2019-03-03T06:43:06.884Z,14.10
2019-03-03T06:44:06.864Z,13.90
2019-03-03T06:45:06.942Z,13.30
2019-03-03T06:46:06.825Z,12.70
2019-03-03T06:47:06.802Z,13.70
2019-03-03T06:48:06.790Z,12.80
2019-03-03T06:49:06.758Z,13.60
2019-03-03T06:50:06.736Z,12.60
2019-03-03T06:51:06.716Z,12.50
2019-03-03T06:52:06.692Z,13.20
2019-03-03T06:53:06.682Z,12.40
2019-03-03T06:54:06.652Z,12.10
2019-03-03T06:55:06.632Z,12.10
2019-03-03T06:56:06.610Z,11.20
2019-03-03T06:57:06.586Z,12.40
2019-03-03T06:58:06.570Z,11.10
2019-03-03T06:59:06.543Z,11.50
2019-03-03T07:00:06.524Z,10.50
2019-03-03T07:01:06.505Z,10.90
2019-03-03T07:02:06.481Z,10.80
2019-03-03T07:03:06.461Z,10.10
2019-03-03T07:04:06.446Z,10.40
2019-03-03T07:05:06.418Z,10.20
2019-03-03T07:06:06.390Z,10.00
2019-03-03T07:07:06.374Z,9.50
2019-03-03T07:08:06.350Z,9.70
2019-03-03T07:09:06.330Z,10.00
2019-03-03T07:10:06.312Z,8.80
2019-03-03T07:11:06.291Z,9.30
2019-03-03T07:12:06.266Z,9.10
2019-03-03T07:13:06.244Z,8.90
2019-03-03T07:14:06.224Z,8.90
2019-03-03T07:15:06.204Z,7.90
2019-03-03T07:16:06.193Z,8.00
2019-03-03T07:17:06.164Z,7.50
2019-03-03T07:18:06.145Z,8.40
2019-03-03T07:19:06.122Z,7.90
2019-03-03T07:20:06.102Z,7.70
2019-03-03T07:21:06.081Z,8.60
2019-03-03T07:22:06.179Z,7.40
2019-03-03T07:23:06.036Z,7.10
2019-03-03T07:24:06.015Z,10.10
2019-03-03T07:25:05.997Z,9.00
2019-03-03T07:26:05.976Z,8.90
2019-03-03T07:27:05.951Z,9.90
2019-03-03T07:28:05.938Z,8.60
2019-03-03T07:29:05.913Z,9.60
2019-03-03T07:30:05.890Z,7.00
2019-03-03T07:31:05.866Z,6.50
2019-03-03T07:32:05.849Z,6.50
2019-03-03T07:33:05.821Z,6.40
2019-03-03T07:34:05.807Z,6.30
2019-03-03T07:35:05.783Z,6.50
2019-03-03T07:36:05.759Z,6.60
2019-03-03T07:37:05.741Z,5.80
2019-03-03T07:38:05.719Z,6.00
2019-03-03T07:39:05.699Z,6.20
2019-03-03T07:40:05.685Z,5.70
2019-03-03T07:41:05.661Z,6.10
2019-03-03T07:42:05.638Z,6.30
2019-03-03T07:43:05.612Z,5.70
2019-03-03T07:44:05.595Z,5.30
2019-03-03T07:45:05.571Z,5.50
2019-03-03T07:46:05.553Z,5.60
2019-03-03T07:47:05.530Z,5.90
2019-03-03T07:48:05.514Z,4.80
2019-03-03T07:49:05.488Z,5.20
2019-03-03T07:50:05.471Z,5.10
2019-03-03T07:51:05.452Z,5.00
2019-03-03T07:52:05.429Z,5.30
2019-03-03T07:53:05.408Z,5.20
2019-03-03T07:54:05.386Z,4.90
2019-03-03T07:55:05.370Z,4.90
2019-03-03T07:56:05.345Z,5.20
2019-03-03T07:57:05.322Z,4.80
2019-03-03T07:58:05.312Z,4.60
2019-03-03T07:59:05.284Z,4.50
2019-03-03T08:00:05.264Z,4.90
2019-03-03T08:01:05.239Z,4.50
2019-03-03T08:02:05.223Z,4.40
2019-03-03T08:03:05.199Z,4.60
2019-03-03T08:04:05.183Z,4.50
2019-03-03T08:05:05.158Z,4.20
2019-03-03T08:06:05.140Z,4.30
2019-03-03T08:07:05.123Z,4.60
2019-03-03T08:08:05.102Z,4.20
2019-03-03T08:09:05.083Z,4.70
2019-03-03T08:10:05.060Z,4.30
2019-03-03T08:11:05.037Z,4.30
2019-03-03T08:12:05.017Z,4.00
2019-03-03T08:13:09.271Z,3.90
2019-03-03T08:14:04.979Z,4.00
2019-03-03T08:15:04.957Z,4.20
2019-03-03T08:16:04.939Z,4.80
2019-03-03T08:17:04.915Z,4.90
2019-03-03T08:18:04.895Z,5.90
2019-03-03T08:19:04.876Z,4.10
2019-03-03T08:20:04.853Z,3.50
2019-03-03T08:21:04.834Z,4.00
2019-03-03T08:22:04.824Z,3.80
2019-03-03T08:23:04.800Z,3.70
2019-03-03T08:24:04.771Z,4.20
2019-03-03T08:25:04.753Z,3.80
2019-03-03T08:26:04.736Z,4.10
2019-03-03T08:27:04.715Z,4.00
2019-03-03T08:28:04.702Z,3.90
2019-03-03T08:29:04.673Z,4.70
2019-03-03T08:30:04.654Z,4.10
2019-03-03T08:31:04.631Z,3.90
2019-03-03T08:32:04.611Z,4.10
2019-03-03T08:33:04.594Z,3.60
2019-03-03T08:34:04.568Z,3.90
2019-03-03T08:35:04.555Z,3.60
2019-03-03T08:36:04.535Z,4.60
2019-03-03T08:37:04.513Z,3.90
2019-03-03T08:38:04.499Z,4.00
2019-03-03T08:39:04.475Z,3.80
2019-03-03T08:40:04.453Z,3.40
2019-03-03T08:41:04.434Z,3.40
2019-03-03T08:42:04.412Z,3.50
2019-03-03T08:43:04.393Z,3.40
2019-03-03T08:44:04.373Z,3.80
2019-03-03T08:45:04.358Z,3.50
2019-03-03T08:46:04.334Z,3.90
2019-03-03T08:47:04.314Z,3.30
2019-03-03T08:48:04.300Z,3.40
2019-03-03T08:49:04.270Z,3.40
2019-03-03T08:50:04.252Z,4.00
2019-03-03T08:51:04.235Z,3.20
2019-03-03T08:52:04.212Z,3.40
2019-03-03T08:53:04.197Z,3.80
2019-03-03T08:54:04.173Z,3.30
2019-03-03T08:55:04.155Z,3.40
2019-03-03T08:56:04.143Z,3.10
2019-03-03T08:57:04.115Z,3.20
2019-03-03T08:58:04.094Z,3.10
2019-03-03T08:59:04.079Z,3.60
2019-03-03T09:00:04.055Z,3.60
2019-03-03T09:01:04.035Z,3.30
2019-03-03T09:02:04.019Z,3.50
2019-03-03T09:03:04.010Z,3.50
2019-03-03T09:04:03.978Z,3.10
2019-03-03T09:05:03.958Z,3.60
2019-03-03T09:06:03.938Z,3.30
2019-03-03T09:07:03.925Z,3.50
2019-03-03T09:08:03.907Z,3.30
2019-03-03T09:09:03.893Z,3.60
2019-03-03T09:10:03.860Z,3.40
2019-03-03T09:11:03.845Z,3.10
2019-03-03T09:12:03.820Z,3.60
2019-03-03T09:13:03.804Z,3.50
2019-03-03T09:14:03.783Z,3.20
2019-03-03T09:15:03.767Z,3.30
2019-03-03T09:16:03.746Z,4.00
2019-03-03T09:17:03.721Z,4.30
2019-03-03T09:18:03.710Z,5.00
2019-03-03T09:19:03.686Z,5.60
2019-03-03T09:20:03.664Z,5.20
2019-03-03T09:21:03.645Z,4.90
2019-03-03T09:22:04.746Z,5.00
2019-03-03T09:23:03.608Z,5.80
2019-03-03T09:24:03.591Z,5.00
2019-03-03T09:25:03.563Z,4.70
2019-03-03T09:26:03.546Z,4.60
2019-03-03T09:27:03.530Z,4.30
2019-03-03T09:28:03.520Z,4.60
2019-03-03T09:29:03.486Z,4.50
2019-03-03T09:30:03.468Z,4.40
2019-03-03T09:31:03.447Z,4.20
2019-03-03T09:32:03.428Z,4.00
2019-03-03T09:33:03.410Z,4.30
2019-03-03T09:34:03.391Z,3.90
2019-03-03T09:35:03.366Z,4.10
2019-03-03T09:36:03.349Z,4.10
2019-03-03T09:37:03.329Z,4.20
2019-03-03T09:38:03.312Z,3.50
2019-03-03T09:39:03.289Z,3.80
2019-03-03T09:40:09.503Z,3.90
2019-03-03T09:41:03.250Z,4.00
2019-03-03T09:42:03.230Z,3.40
2019-03-03T09:43:03.212Z,3.70
2019-03-03T09:44:03.191Z,3.60
2019-03-03T09:45:03.175Z,3.60
2019-03-03T09:46:03.147Z,3.50
2019-03-03T09:47:03.132Z,3.10
2019-03-03T09:48:03.117Z,3.00
2019-03-03T09:49:03.128Z,3.20
2019-03-03T09:50:03.066Z,3.20
2019-03-03T09:51:03.053Z,2.90
2019-03-03T09:52:03.035Z,3.00
2019-03-03T09:53:03.025Z,3.30
2019-03-03T09:54:02.999Z,2.50
2019-03-03T09:55:02.970Z,3.00
2019-03-03T09:56:02.958Z,2.90
2019-03-03T09:57:02.928Z,3.30
2019-03-03T09:58:02.910Z,3.20
2019-03-03T09:59:02.892Z,3.00
2019-03-03T10:00:02.888Z,2.90
2019-03-03T10:01:02.852Z,2.80
2019-03-03T10:02:02.845Z,3.00
2019-03-03T10:03:02.815Z,3.20
2019-03-03T10:04:02.793Z,2.90
2019-03-03T10:05:02.770Z,3.10
2019-03-03T10:06:02.756Z,2.90
2019-03-03T10:07:02.735Z,2.80
2019-03-03T10:08:02.715Z,2.90
2019-03-03T10:09:02.695Z,2.80
2019-03-03T10:10:02.675Z,3.10
2019-03-03T10:11:02.655Z,2.70
2019-03-03T10:12:02.631Z,3.00
2019-03-03T10:13:02.617Z,3.10
2019-03-03T10:14:02.592Z,3.00
2019-03-03T10:15:02.580Z,2.40
2019-03-03T10:16:02.558Z,2.70
2019-03-03T10:17:02.536Z,3.10
2019-03-03T10:18:02.518Z,3.10
2019-03-03T10:19:07.144Z,3.10
2019-03-03T10:20:02.480Z,2.60
2019-03-03T10:21:03.264Z,2.60
2019-03-03T10:22:02.442Z,2.40
2019-03-03T10:23:02.416Z,2.30
2019-03-03T10:24:02.406Z,2.40
2019-03-03T10:25:02.379Z,2.90
2019-03-03T10:26:02.360Z,2.40
2019-03-03T10:27:02.337Z,2.80
2019-03-03T10:28:02.323Z,2.90
2019-03-03T10:29:02.300Z,2.70
2019-03-03T10:30:02.283Z,2.40
2019-03-03T10:31:02.261Z,3.00
2019-03-03T10:32:02.239Z,3.10
2019-03-03T10:33:02.220Z,3.00
2019-03-03T10:34:02.208Z,2.90
2019-03-03T10:35:02.179Z,2.70
2019-03-03T10:36:02.169Z,3.20
2019-03-03T10:37:02.140Z,3.40
2019-03-03T10:38:02.131Z,3.90
2019-03-03T10:39:02.182Z,4.30
2019-03-03T10:40:02.099Z,5.00
2019-03-03T10:41:02.073Z,5.30
2019-03-03T10:42:02.044Z,4.90
2019-03-03T10:43:02.025Z,4.90
2019-03-03T10:44:02.007Z,4.70
2019-03-03T10:45:01.982Z,4.70
2019-03-03T10:46:01.967Z,4.70
2019-03-03T10:47:01.943Z,4.50
2019-03-03T10:48:01.927Z,4.40
2019-03-03T10:49:01.907Z,4.10
2019-03-03T10:50:01.892Z,3.70
2019-03-03T10:51:01.875Z,3.50
2019-03-03T10:52:01.848Z,3.30
2019-03-03T10:53:01.831Z,3.60
2019-03-03T10:54:01.818Z,3.70
2019-03-03T10:55:01.798Z,3.10
2019-03-03T10:56:01.772Z,3.20
2019-03-03T10:57:01.754Z,3.10
2019-03-03T10:58:01.738Z,3.00
2019-03-03T10:59:01.711Z,2.90
2019-03-03T11:00:01.700Z,3.60
2019-03-03T11:01:01.678Z,2.90
2019-03-03T11:02:01.655Z,4.20
2019-03-03T11:03:02.648Z,4.20
2019-03-03T11:04:01.615Z,4.80
2019-03-03T11:05:01.594Z,3.80
2019-03-03T11:06:01.573Z,3.80
2019-03-03T11:07:01.558Z,3.80
2019-03-03T11:08:01.536Z,3.90
2019-03-03T11:09:01.521Z,4.30
2019-03-03T11:10:01.496Z,3.90
2019-03-03T11:11:01.479Z,4.50
2019-03-03T11:12:01.459Z,3.80
2019-03-03T11:13:01.467Z,3.80
2019-03-03T11:14:01.479Z,4.10
2019-03-03T11:15:01.401Z,3.40
2019-03-03T11:16:01.377Z,3.70
2019-03-03T11:17:01.366Z,3.60
2019-03-03T11:18:01.341Z,3.60
2019-03-03T11:19:01.322Z,3.60
2019-03-03T11:20:01.310Z,3.50
2019-03-03T11:21:01.286Z,3.10
2019-03-03T11:22:01.263Z,3.10
2019-03-03T11:23:01.237Z,2.90
2019-03-03T11:24:01.238Z,3.30
2019-03-03T11:25:01.203Z,3.30
2019-03-03T11:26:01.180Z,3.00
2019-03-03T11:27:01.162Z,3.00
2019-03-03T11:28:01.144Z,3.10
2019-03-03T11:29:01.123Z,2.90
2019-03-03T11:30:01.111Z,2.80
2019-03-03T11:31:01.084Z,3.10
2019-03-03T11:32:01.061Z,2.60
2019-03-03T11:33:01.046Z,2.60
2019-03-03T11:34:01.023Z,3.00
2019-03-03T11:35:01.012Z,3.30
2019-03-03T11:36:00.988Z,2.70
2019-03-03T11:37:00.969Z,2.80
2019-03-03T11:38:00.953Z,2.90
2019-03-03T11:39:00.928Z,2.30
2019-03-03T11:40:00.912Z,2.70
2019-03-03T11:41:00.899Z,2.40
2019-03-03T11:42:00.872Z,2.60
2019-03-03T11:43:00.854Z,2.80
2019-03-03T11:44:00.834Z,2.70
2019-03-03T11:45:00.816Z,2.70
2019-03-03T11:46:00.793Z,3.00
2019-03-03T11:47:00.771Z,2.90
2019-03-03T11:48:04.237Z,2.70
2019-03-03T11:49:00.735Z,2.70
2019-03-03T11:50:00.716Z,2.90
2019-03-03T11:51:00.697Z,2.70
2019-03-03T11:52:00.686Z,2.30
2019-03-03T11:53:00.661Z,2.50
2019-03-03T11:54:00.642Z,2.90
2019-03-03T11:55:00.973Z,2.60
2019-03-03T11:56:00.600Z,2.50
2019-03-03T11:57:00.580Z,3.00
2019-03-03T11:58:00.564Z,2.80
2019-03-03T11:59:00.551Z,3.20
2019-03-03T12:00:00.525Z,3.20
2019-03-03T12:01:00.512Z,3.60
2019-03-03T12:02:00.494Z,2.90
2019-03-03T12:03:00.465Z,3.20
2019-03-03T12:04:00.446Z,2.80
2019-03-03T12:05:00.492Z,2.70
2019-03-03T12:06:00.408Z,2.70
2019-03-03T12:07:00.390Z,3.00
2019-03-03T12:08:00.370Z,3.20
2019-03-03T12:09:00.355Z,2.80
2019-03-03T12:10:00.330Z,2.70
2019-03-03T12:11:00.315Z,3.00
2019-03-03T12:12:00.295Z,3.40
2019-03-03T12:13:00.276Z,3.20
2019-03-03T12:14:00.252Z,3.40
2019-03-03T12:15:00.315Z,4.10
2019-03-03T12:16:00.217Z,3.20
2019-03-03T12:17:00.194Z,3.60
2019-03-03T12:18:00.174Z,3.60
2019-03-03T12:19:01.703Z,4.20
2019-03-03T12:20:00.241Z,4.00
2019-03-03T12:21:00.118Z,4.80
2019-03-03T12:22:00.101Z,5.10
2019-03-03T12:23:00.078Z,5.80
2019-03-03T12:24:00.062Z,5.90
2019-03-03T12:25:00.042Z,5.90
2019-03-03T12:26:00.022Z,6.30
2019-03-03T12:27:00.002Z,5.90
2019-03-03T12:27:59.991Z,7.40
2019-03-03T12:28:59.959Z,8.40
2019-03-03T12:29:59.946Z,9.40
2019-03-03T12:30:59.932Z,8.60
2019-03-03T12:31:59.908Z,9.00
2019-03-03T12:32:59.887Z,9.50
2019-03-03T12:33:59.865Z,9.80
2019-03-03T12:34:59.842Z,9.50
2019-03-03T12:35:59.828Z,9.70
2019-03-03T12:36:59.802Z,9.00
2019-03-03T12:37:59.782Z,8.90
2019-03-03T12:38:59.763Z,9.60
2019-03-03T12:39:59.746Z,9.70
2019-03-03T12:40:59.724Z,8.80
2019-03-03T12:41:59.710Z,11.60
2019-03-03T12:42:59.681Z,10.00
2019-03-03T12:43:59.666Z,9.90
2019-03-03T12:44:59.651Z,10.50
2019-03-03T12:45:59.623Z,9.40
2019-03-03T12:46:59.605Z,9.50
2019-03-03T12:47:59.586Z,11.10
2019-03-03T12:48:59.563Z,8.90
2019-03-03T12:49:59.542Z,10.20
2019-03-03T12:50:59.533Z,10.30
2019-03-03T12:51:59.508Z,11.00
2019-03-03T12:52:59.482Z,10.70
2019-03-03T12:53:59.467Z,11.80
2019-03-03T12:54:59.447Z,10.10
2019-03-03T12:55:59.428Z,10.00
2019-03-03T12:56:59.403Z,8.40
2019-03-03T12:57:59.383Z,10.10
2019-03-03T12:58:59.368Z,11.10
2019-03-03T12:59:59.347Z,10.20
2019-03-03T13:00:59.333Z,11.40
2019-03-03T13:01:59.306Z,9.70
2019-03-03T13:02:59.284Z,10.70